createdAt,value
2018-06-05T00:01:47.779Z,18.60
2018-06-05T00:04:16.010Z,18.70
2018-06-05T00:06:44.313Z,18.70
2018-06-05T00:09:12.462Z,18.60
2018-06-05T00:11:40.936Z,18.60
2018-06-05T00:14:09.145Z,18.50
2018-06-05T00:16:37.402Z,18.40
2018-06-05T00:19:05.829Z,18.40
2018-06-05T00:21:33.977Z,18.50
2018-06-05T00:24:02.216Z,18.40
2018-06-05T00:26:30.489Z,18.40
2018-06-05T00:28:58.660Z,18.40
2018-06-05T00:31:26.941Z,18.40
2018-06-05T00:33:55.191Z,18.30
2018-06-05T00:36:23.340Z,18.20
2018-06-05T00:38:51.826Z,18.20
2018-06-05T00:41:19.978Z,18.20
2018-06-05T00:43:48.156Z,18.20
2018-06-05T00:46:16.386Z,18.20
2018-06-05T00:48:44.712Z,18.10
2018-06-05T00:51:24.373Z,18.10
2018-06-05T00:53:52.612Z,18.00
2018-06-05T00:56:20.899Z,18.00
2018-06-05T00:58:49.095Z,17.90
2018-06-05T01:01:17.266Z,17.90
2018-06-05T01:03:45.485Z,17.80
2018-06-05T01:06:13.905Z,17.80
2018-06-05T01:08:42.164Z,17.80
2018-06-05T01:11:10.506Z,17.80
2018-06-05T01:13:39.011Z,17.80
2018-06-05T01:16:07.172Z,17.70
2018-06-05T01:18:35.326Z,17.70
2018-06-05T01:21:03.547Z,17.70
2018-06-05T01:23:32.077Z,17.50
2018-06-05T01:26:00.280Z,17.40
2018-06-05T01:28:28.481Z,17.40
2018-06-05T01:30:56.690Z,17.20
2018-06-05T01:33:25.003Z,17.20
2018-06-05T01:35:53.261Z,17.30
2018-06-05T01:38:21.405Z,17.30
2018-06-05T01:40:49.605Z,17.30
2018-06-05T01:43:17.764Z,17.40
2018-06-05T01:45:46.024Z,17.40
2018-06-05T01:48:14.317Z,17.30
2018-06-05T01:50:43.346Z,17.30
2018-06-05T01:53:11.487Z,17.30
2018-06-05T01:55:39.877Z,17.20
2018-06-05T01:58:08.065Z,17.20
2018-06-05T02:00:36.282Z,17.10
2018-06-05T02:03:04.594Z,17.10
2018-06-05T02:05:32.724Z,17.10
2018-06-05T02:08:01.025Z,17.10
2018-06-05T02:10:29.405Z,17.10
2018-06-05T02:12:57.619Z,17.00
2018-06-05T02:15:25.816Z,17.10
2018-06-05T02:17:53.994Z,17.00
2018-06-05T02:20:22.170Z,17.00
2018-06-05T02:22:50.374Z,17.10
2018-06-05T02:25:18.511Z,17.00
2018-06-05T02:27:46.666Z,16.90
2018-06-05T02:30:14.862Z,17.00
2018-06-05T02:32:43.054Z,17.00
2018-06-05T02:35:11.268Z,16.90
2018-06-05T02:37:39.481Z,17.00
2018-06-05T02:40:07.797Z,17.00
2018-06-05T02:42:36.203Z,16.90
2018-06-05T02:45:04.425Z,16.90
2018-06-05T02:47:32.617Z,16.90
2018-06-05T02:50:01.624Z,16.90
2018-06-05T02:52:29.768Z,17.00
2018-06-05T02:54:57.898Z,17.00
2018-06-05T02:57:26.112Z,17.00
2018-06-05T02:59:54.389Z,17.00
2018-06-05T03:02:22.604Z,16.90
2018-06-05T03:04:50.797Z,16.90
2018-06-05T03:07:19.115Z,17.00
2018-06-05T03:09:47.283Z,17.00
2018-06-05T03:12:15.575Z,17.00
2018-06-05T03:14:43.764Z,16.90
2018-06-05T03:17:11.984Z,16.90
2018-06-05T03:19:40.159Z,16.90
2018-06-05T03:22:08.390Z,17.00
2018-06-05T03:27:04.684Z,17.00
2018-06-05T03:29:32.926Z,17.00
2018-06-05T03:32:01.031Z,17.00
2018-06-05T03:36:57.401Z,17.00
2018-06-05T03:42:08.526Z,17.10
2018-06-05T03:44:36.739Z,17.10
2018-06-05T03:47:04.977Z,17.10
2018-06-05T03:49:38.519Z,17.10
2018-06-05T03:52:06.702Z,17.20
2018-06-05T03:54:34.991Z,17.20
2018-06-05T03:57:03.639Z,17.20
2018-06-05T03:59:31.844Z,17.20
2018-06-05T04:02:00.177Z,17.20
2018-06-05T04:04:28.384Z,17.30
2018-06-05T04:06:56.554Z,17.30
2018-06-05T04:09:24.869Z,17.20
2018-06-05T04:11:53.143Z,17.40
2018-06-05T04:14:21.276Z,17.40
2018-06-05T04:16:51.575Z,17.40
2018-06-05T04:19:19.774Z,17.30
2018-06-05T04:21:47.899Z,17.40
2018-06-05T04:24:16.102Z,17.50
2018-06-05T04:26:44.239Z,17.50
2018-06-05T04:29:12.593Z,17.50
2018-06-05T04:31:40.935Z,17.50
2018-06-05T04:34:09.323Z,17.50
2018-06-05T04:36:37.450Z,17.60
2018-06-05T04:39:07.158Z,17.60
2018-06-05T04:41:35.357Z,17.60
2018-06-05T04:44:03.524Z,17.60
2018-06-05T04:46:31.680Z,17.50
2018-06-05T04:48:59.797Z,17.50
2018-06-05T04:51:27.961Z,17.50
2018-06-05T04:53:56.199Z,17.60
2018-06-05T04:56:24.408Z,17.70
2018-06-05T04:58:52.633Z,17.70
2018-06-05T05:01:21.156Z,17.80
2018-06-05T05:03:49.291Z,17.70
2018-06-05T05:06:17.472Z,17.80
2018-06-05T05:08:45.626Z,17.80
2018-06-05T05:11:13.795Z,18.00
2018-06-05T05:13:41.939Z,18.10
2018-06-05T05:16:10.211Z,18.10
2018-06-05T05:18:38.536Z,18.00
2018-06-05T05:21:06.640Z,17.90
2018-06-05T05:23:34.898Z,17.80
2018-06-05T05:26:03.278Z,17.80
2018-06-05T05:28:31.528Z,17.80
2018-06-05T05:30:59.636Z,17.80
2018-06-05T05:33:27.888Z,17.80
2018-06-05T05:35:56.248Z,17.70
2018-06-05T05:38:24.380Z,17.80
2018-06-05T05:40:52.526Z,17.80
2018-06-05T05:43:20.712Z,18.10
2018-06-05T05:45:48.860Z,18.60
2018-06-05T05:48:17.004Z,18.60
2018-06-05T05:50:45.101Z,19.20
2018-06-05T05:53:13.222Z,19.60
2018-06-05T05:55:41.397Z,20.00
2018-06-05T05:58:09.649Z,20.00
2018-06-05T06:00:37.871Z,19.70
2018-06-05T06:03:06.065Z,19.50
2018-06-05T06:05:34.252Z,19.50
2018-06-05T06:08:02.458Z,19.80
2018-06-05T06:10:30.766Z,19.90
2018-06-05T06:12:58.914Z,19.70
2018-06-05T06:15:27.178Z,19.40
2018-06-05T06:17:55.352Z,19.50
2018-06-05T06:20:23.486Z,19.40
2018-06-05T06:22:51.647Z,19.60
2018-06-05T06:25:19.804Z,19.70
2018-06-05T06:27:47.912Z,19.70
2018-06-05T06:30:16.200Z,19.80
2018-06-05T06:32:44.359Z,20.20
2018-06-05T06:35:12.558Z,20.30
2018-06-05T06:37:40.674Z,19.80
2018-06-05T06:40:08.884Z,19.90
2018-06-05T06:42:37.176Z,19.70
2018-06-05T06:45:05.514Z,19.60
2018-06-05T06:47:33.786Z,19.60
2018-06-05T06:50:02.091Z,19.80
2018-06-05T06:52:30.386Z,19.80
2018-06-05T06:54:58.777Z,19.60
2018-06-05T06:57:27.016Z,19.20
2018-06-05T07:02:23.442Z,18.70
2018-06-05T07:04:51.675Z,18.70
2018-06-05T07:07:20.030Z,18.60
2018-06-05T07:09:48.289Z,18.70
2018-06-05T07:12:16.464Z,18.90
2018-06-05T07:14:44.852Z,19.00
2018-06-05T07:17:13.028Z,18.90
2018-06-05T07:19:41.234Z,18.80
2018-06-05T07:22:09.465Z,19.20
2018-06-05T07:24:37.725Z,19.00
2018-06-05T07:27:06.067Z,18.90
2018-06-05T07:29:34.261Z,18.80
2018-06-05T07:32:02.516Z,18.90
2018-06-05T07:34:30.677Z,19.00
2018-06-05T07:36:58.986Z,19.00
2018-06-05T07:39:27.154Z,19.30
2018-06-05T07:41:55.566Z,19.50
2018-06-05T07:44:23.734Z,19.60
2018-06-05T07:46:52.029Z,19.40
2018-06-05T07:49:20.183Z,19.60
2018-06-05T07:51:48.358Z,19.80
2018-06-05T07:54:16.532Z,19.60
2018-06-05T07:56:45.397Z,19.50
2018-06-05T07:59:13.592Z,19.60
2018-06-05T08:01:41.950Z,19.90
2018-06-05T08:04:10.180Z,19.90
2018-06-05T08:06:38.544Z,19.90
2018-06-05T08:09:08.657Z,20.00
2018-06-05T08:11:37.158Z,20.10
2018-06-05T08:14:05.558Z,20.10
2018-06-05T08:16:33.790Z,19.80
2018-06-05T08:19:02.111Z,19.90
2018-06-05T08:21:30.380Z,19.80
2018-06-05T08:23:58.592Z,19.70
2018-06-05T08:26:48.959Z,19.70
2018-06-05T08:29:18.109Z,19.60
2018-06-05T08:31:46.295Z,19.70
2018-06-05T08:34:14.699Z,19.60
2018-06-05T08:36:43.055Z,19.60
2018-06-05T08:39:11.435Z,19.70
2018-06-05T08:41:39.598Z,19.80
2018-06-05T08:44:07.807Z,19.80
2018-06-05T08:49:03.965Z,19.60
2018-06-05T08:54:00.525Z,19.50
2018-06-05T08:56:28.920Z,19.60
2018-06-05T09:01:25.134Z,19.70
2018-06-05T09:03:53.255Z,19.60
2018-06-05T09:06:21.450Z,19.60
2018-06-05T09:08:49.581Z,19.60
2018-06-05T09:11:17.810Z,19.60
2018-06-05T09:13:46.069Z,19.60
2018-06-05T09:16:14.704Z,19.60
2018-06-05T09:18:42.892Z,19.50
2018-06-05T09:21:11.102Z,19.60
2018-06-05T09:23:39.216Z,19.60
2018-06-05T09:26:07.420Z,19.70
2018-06-05T09:28:35.585Z,19.60
2018-06-05T09:33:34.254Z,19.60
2018-06-05T09:36:02.437Z,19.60
2018-06-05T09:38:30.989Z,19.70
2018-06-05T09:40:59.240Z,19.60
2018-06-05T09:43:27.630Z,19.70
2018-06-05T09:45:55.928Z,19.80
2018-06-05T09:48:24.110Z,19.80
2018-06-05T09:50:52.276Z,19.80
2018-06-05T09:53:20.654Z,19.90
2018-06-05T09:55:48.809Z,19.80
2018-06-05T09:58:17.191Z,19.90
2018-06-05T10:00:51.310Z,20.00
2018-06-05T10:05:48.164Z,20.10
2018-06-05T10:08:16.415Z,20.10
2018-06-05T10:10:44.563Z,20.10
2018-06-05T10:13:12.871Z,20.20
2018-06-05T10:15:41.063Z,20.30
2018-06-05T10:18:09.288Z,20.40
2018-06-05T10:20:37.535Z,20.60
2018-06-05T10:23:06.402Z,20.70
2018-06-05T10:25:34.546Z,20.80
2018-06-05T10:28:02.894Z,20.80
2018-06-05T10:30:31.066Z,21.00
2018-06-05T10:32:59.297Z,21.10
2018-06-05T10:35:27.673Z,21.20
2018-06-05T10:37:55.953Z,21.10
2018-06-05T10:40:24.242Z,21.10
2018-06-05T10:42:52.482Z,21.20
2018-06-05T10:45:20.591Z,21.30
2018-06-05T10:47:48.825Z,21.50
2018-06-05T10:50:17.027Z,21.60
2018-06-05T10:52:45.216Z,21.60
2018-06-05T10:55:13.448Z,21.60
2018-06-05T10:57:41.663Z,21.60
2018-06-05T11:00:10.044Z,21.60
2018-06-05T11:02:38.284Z,21.60
2018-06-05T11:05:06.424Z,21.50
2018-06-05T11:07:35.073Z,21.40
2018-06-05T11:10:03.361Z,21.40
2018-06-05T11:12:31.814Z,21.30
2018-06-05T11:15:00.044Z,21.30
2018-06-05T11:17:28.195Z,21.20
2018-06-05T11:19:56.399Z,21.10
2018-06-05T11:22:24.558Z,21.10
2018-06-05T11:24:52.760Z,21.20
2018-06-05T11:27:21.157Z,21.20
2018-06-05T11:29:49.616Z,21.30
2018-06-05T11:32:17.748Z,21.30
2018-06-05T11:34:46.021Z,21.30
2018-06-05T11:37:14.202Z,21.40
2018-06-05T11:39:42.468Z,21.40
2018-06-05T11:42:10.688Z,21.40
2018-06-05T11:44:38.811Z,21.40
2018-06-05T11:47:07.032Z,21.40
2018-06-05T11:49:35.416Z,21.50
2018-06-05T11:52:03.635Z,21.40
2018-06-05T11:54:31.884Z,21.40
2018-06-05T11:57:00.783Z,21.60
2018-06-05T11:59:28.928Z,22.00
2018-06-05T12:01:57.167Z,22.50
2018-06-05T12:04:25.383Z,23.00
2018-06-05T12:06:53.615Z,23.40
2018-06-05T12:09:22.327Z,23.60
2018-06-05T12:11:50.538Z,23.70
2018-06-05T12:14:18.761Z,24.00
2018-06-05T12:16:46.987Z,24.00
2018-06-05T12:19:15.256Z,24.10
2018-06-05T12:21:43.396Z,24.20
2018-06-05T12:24:11.751Z,24.40
2018-06-05T12:26:39.966Z,24.80
2018-06-05T12:29:08.135Z,25.20
2018-06-05T12:31:36.336Z,25.40
2018-06-05T12:34:04.522Z,25.70
2018-06-05T12:36:32.996Z,25.80
2018-06-05T12:39:01.223Z,26.10
2018-06-05T12:41:29.415Z,26.40
2018-06-05T12:43:59.569Z,26.70
2018-06-05T12:48:56.045Z,27.10
2018-06-05T12:51:24.299Z,27.20
2018-06-05T12:53:52.596Z,27.30
2018-06-05T12:56:20.829Z,27.40
2018-06-05T13:01:19.208Z,27.50
2018-06-05T13:03:48.695Z,27.70
2018-06-05T13:06:16.815Z,27.70
2018-06-05T13:08:45.151Z,27.80
2018-06-05T13:11:14.019Z,27.80
2018-06-05T13:13:42.467Z,27.90
2018-06-05T13:16:10.730Z,28.00
2018-06-05T13:18:38.921Z,28.00
2018-06-05T13:21:07.377Z,28.10
2018-06-05T13:23:35.908Z,28.00
2018-06-05T13:26:04.211Z,28.00
2018-06-05T13:28:32.764Z,27.90
2018-06-05T13:31:00.976Z,27.90
2018-06-05T13:33:29.126Z,28.00
2018-06-05T13:35:58.449Z,28.00
2018-06-05T13:38:26.796Z,28.10
2018-06-05T13:40:54.929Z,28.30
2018-06-05T13:43:23.631Z,28.40
2018-06-05T13:45:52.622Z,28.50
2018-06-05T13:48:20.807Z,28.60
2018-06-05T13:50:49.049Z,28.70
2018-06-05T13:53:17.325Z,28.80
2018-06-05T13:55:45.570Z,28.80
2018-06-05T13:58:13.692Z,28.80
2018-06-05T14:00:42.840Z,28.60
2018-06-05T14:03:11.527Z,28.60
2018-06-05T14:05:40.429Z,28.60
2018-06-05T14:08:08.854Z,28.50
2018-06-05T14:10:37.095Z,28.60
2018-06-05T14:13:05.451Z,28.50
2018-06-05T14:15:33.753Z,28.30
2018-06-05T14:18:01.904Z,28.10
2018-06-05T14:20:30.336Z,28.10
2018-06-05T14:22:58.525Z,28.10
2018-06-05T14:25:26.686Z,28.20
2018-06-05T14:27:55.508Z,28.20
2018-06-05T14:30:23.762Z,28.10
2018-06-05T14:32:51.881Z,28.00
2018-06-05T14:36:23.410Z,27.90
2018-06-05T14:38:51.656Z,27.70
2018-06-05T14:41:19.889Z,27.50
2018-06-05T14:43:48.153Z,27.50
2018-06-05T14:46:16.398Z,27.50
2018-06-05T14:48:44.611Z,27.50
2018-06-05T14:51:12.788Z,27.50
2018-06-05T14:53:41.264Z,27.50
2018-06-05T14:56:09.523Z,27.60
2018-06-05T14:58:37.754Z,27.60
2018-06-05T15:01:06.043Z,27.50
2018-06-05T15:03:34.341Z,27.30
2018-06-05T15:06:02.574Z,27.30
2018-06-05T15:08:30.790Z,27.20
2018-06-05T15:11:00.345Z,27.20
2018-06-05T15:13:28.700Z,27.20
2018-06-05T15:15:57.093Z,27.20
2018-06-05T15:18:25.328Z,27.10
2018-06-05T15:20:53.490Z,27.10
2018-06-05T15:23:22.484Z,27.10
2018-06-05T15:25:50.644Z,27.00
2018-06-05T15:28:18.765Z,27.00
2018-06-05T15:30:47.083Z,27.00
2018-06-05T15:33:15.315Z,27.00
2018-06-05T15:35:43.448Z,27.00
2018-06-05T15:38:11.686Z,27.00
2018-06-05T15:40:39.925Z,27.00
2018-06-05T15:43:08.326Z,26.90
2018-06-05T15:45:36.504Z,26.90
2018-06-05T15:48:04.983Z,26.90
2018-06-05T15:50:33.255Z,26.90
2018-06-05T15:53:01.419Z,26.80
2018-06-05T15:55:29.869Z,26.60
2018-06-05T15:57:58.698Z,26.50
2018-06-05T16:00:26.890Z,26.40
2018-06-05T16:02:55.133Z,26.40
2018-06-05T16:05:23.405Z,26.50
2018-06-05T16:07:51.639Z,26.40
2018-06-05T16:10:19.944Z,26.40
2018-06-05T16:12:48.117Z,26.40
2018-06-05T16:15:16.389Z,26.30
2018-06-05T16:17:44.631Z,26.30
2018-06-05T16:20:12.906Z,26.40
2018-06-05T16:22:41.122Z,26.30
2018-06-05T16:25:09.334Z,26.30
2018-06-05T16:32:14.277Z,26.20
2018-06-05T16:34:42.497Z,26.20
2018-06-05T16:37:10.736Z,26.10
2018-06-05T16:39:38.979Z,26.10
2018-06-05T16:42:07.297Z,26.10
2018-06-05T16:44:35.601Z,26.00
2018-06-05T16:47:03.742Z,25.90
2018-06-05T16:49:32.508Z,25.80
2018-06-05T16:52:00.690Z,25.80
2018-06-05T16:54:28.891Z,25.70
2018-06-05T16:56:57.053Z,25.70
2018-06-05T16:59:25.315Z,25.70
2018-06-05T17:01:53.549Z,25.70
2018-06-05T17:06:50.045Z,25.50
2018-06-05T17:09:18.180Z,25.50
2018-06-05T17:11:46.724Z,25.50
2018-06-05T17:14:14.893Z,25.50
2018-06-05T17:16:43.098Z,25.50
2018-06-05T17:19:11.289Z,25.40
2018-06-05T17:21:39.892Z,25.30
2018-06-05T17:24:08.203Z,25.30
2018-06-05T17:26:36.456Z,25.20
2018-06-05T17:29:04.692Z,25.20
2018-06-05T17:31:32.874Z,25.10
2018-06-05T17:34:01.394Z,25.10
2018-06-05T17:36:29.554Z,25.10
2018-06-05T17:38:57.733Z,25.00
2018-06-05T17:41:25.969Z,24.90
2018-06-05T17:43:54.166Z,24.90
2018-06-05T17:46:22.338Z,24.80
2018-06-05T17:51:18.924Z,24.80
2018-06-05T17:53:47.151Z,24.80
2018-06-05T17:56:15.441Z,24.80
2018-06-05T17:58:43.641Z,24.80
2018-06-05T18:01:11.825Z,24.80
2018-06-05T18:03:40.024Z,24.80
2018-06-05T18:06:08.242Z,24.90
2018-06-05T18:08:36.384Z,24.90
2018-06-05T18:11:04.742Z,25.10
2018-06-05T18:13:33.014Z,25.10
2018-06-05T18:18:29.292Z,25.00
2018-06-05T18:20:57.579Z,24.90
2018-06-05T18:23:25.753Z,24.90
2018-06-05T18:25:54.138Z,24.80
2018-06-05T18:28:22.401Z,24.80
2018-06-05T18:30:50.917Z,24.70
2018-06-05T18:33:19.111Z,24.70
2018-06-05T18:35:47.356Z,24.60
2018-06-05T18:38:15.555Z,24.60
2018-06-05T18:40:44.438Z,24.60
2018-06-05T18:43:12.741Z,24.50
2018-06-05T18:45:41.596Z,24.50
2018-06-05T18:48:09.909Z,24.40
2018-06-05T18:50:38.387Z,24.40
2018-06-05T18:53:07.070Z,24.30
2018-06-05T18:55:36.103Z,24.30
2018-06-05T18:58:05.464Z,24.30
2018-06-05T19:00:33.854Z,24.20
2018-06-05T19:03:02.247Z,24.10
2018-06-05T19:05:30.777Z,24.10
2018-06-05T19:07:59.126Z,24.00
2018-06-05T19:12:55.726Z,23.80
2018-06-05T19:15:24.175Z,23.70
2018-06-05T19:17:52.453Z,23.70
2018-06-05T19:20:21.154Z,23.60
2018-06-05T19:22:49.426Z,23.50
2018-06-05T19:25:18.495Z,23.40
2018-06-05T19:27:46.948Z,23.40
2018-06-05T19:30:15.285Z,23.40
2018-06-05T19:32:43.825Z,23.30
2018-06-05T19:35:12.391Z,23.40
2018-06-05T19:37:40.632Z,23.50
2018-06-05T19:40:08.959Z,23.50
2018-06-05T19:42:37.443Z,23.50
2018-06-05T19:45:06.064Z,23.50
2018-06-05T19:47:35.161Z,23.50
2018-06-05T19:50:03.806Z,23.50
2018-06-05T19:52:34.536Z,23.50
2018-06-05T19:55:02.915Z,23.40
2018-06-05T19:57:31.140Z,23.40
2018-06-05T19:59:59.445Z,23.30
2018-06-05T20:02:27.725Z,23.20
2018-06-05T20:04:56.272Z,23.20
2018-06-05T20:07:24.562Z,23.20
2018-06-05T20:09:52.830Z,23.20
2018-06-05T20:12:21.461Z,23.10
2018-06-05T20:14:50.279Z,23.00
2018-06-05T20:17:19.015Z,22.90
2018-06-05T20:19:47.307Z,22.90
2018-06-05T20:22:15.803Z,22.80
2018-06-05T20:24:44.335Z,22.60
2018-06-05T20:27:13.219Z,22.50
2018-06-05T20:29:42.007Z,22.40
2018-06-05T20:32:10.250Z,22.30
2018-06-05T20:37:08.138Z,22.20
2018-06-05T20:39:36.563Z,22.10
2018-06-05T20:42:04.974Z,22.10
2018-06-05T20:44:33.387Z,22.00
2018-06-05T20:47:01.856Z,21.90
2018-06-05T20:49:30.276Z,21.80
2018-06-05T20:52:01.374Z,21.70
2018-06-05T20:54:29.735Z,21.50
2018-06-05T20:56:59.655Z,21.50
2018-06-05T20:59:28.625Z,21.40
2018-06-05T21:01:57.116Z,21.30
2018-06-05T21:04:31.847Z,21.20
2018-06-05T21:07:00.102Z,21.10
2018-06-05T21:09:28.597Z,21.00
2018-06-05T21:11:56.905Z,20.90
2018-06-05T21:14:25.532Z,20.90
2018-06-05T21:16:53.889Z,20.80
2018-06-05T21:19:22.232Z,20.70
2018-06-05T21:21:50.825Z,20.70
2018-06-05T21:24:19.006Z,20.60
2018-06-05T21:26:47.394Z,20.50
2018-06-05T21:29:15.513Z,20.40
2018-06-05T21:31:43.710Z,20.30
2018-06-05T21:34:11.864Z,20.30
2018-06-05T21:36:39.996Z,20.20
2018-06-05T21:39:08.959Z,20.10
2018-06-05T21:41:37.382Z,20.10
2018-06-05T21:44:05.611Z,20.00
2018-06-05T21:46:34.280Z,20.00
2018-06-05T21:49:02.542Z,19.90
2018-06-05T21:51:30.672Z,19.90
2018-06-05T21:53:58.965Z,19.80
2018-06-05T21:56:27.102Z,19.80
2018-06-05T21:58:55.498Z,19.70
2018-06-05T22:01:23.867Z,19.70
2018-06-05T22:03:52.053Z,19.70
2018-06-05T22:06:20.223Z,19.60
2018-06-05T22:08:48.389Z,19.50
2018-06-05T22:11:16.671Z,19.40
2018-06-05T22:13:44.809Z,19.40
2018-06-05T22:16:13.721Z,19.40
2018-06-05T22:18:41.875Z,19.30
2018-06-05T22:21:10.084Z,19.20
2018-06-05T22:23:38.322Z,19.20
2018-06-05T22:26:06.476Z,19.20
2018-06-05T22:28:34.801Z,19.10
2018-06-05T22:31:02.943Z,19.10
2018-06-05T22:33:31.241Z,19.00
2018-06-05T22:35:59.455Z,19.00
2018-06-05T22:38:28.676Z,19.00
2018-06-05T22:40:56.791Z,18.90
2018-06-05T22:43:25.020Z,18.90
2018-06-05T22:45:53.367Z,18.80
2018-06-05T22:48:21.499Z,18.80
2018-06-05T22:50:49.643Z,18.70
2018-06-05T22:53:17.859Z,18.70
2018-06-05T22:55:46.144Z,18.60
2018-06-05T22:58:14.341Z,18.50
2018-06-05T23:00:42.448Z,18.50
2018-06-05T23:03:10.777Z,18.50
2018-06-05T23:05:39.108Z,18.50
2018-06-05T23:08:07.228Z,18.40
2018-06-05T23:10:35.459Z,18.50
2018-06-05T23:13:03.617Z,18.40
2018-06-05T23:15:31.803Z,18.40
2018-06-05T23:18:00.147Z,18.30
2018-06-05T23:20:28.562Z,18.30
2018-06-05T23:22:56.852Z,18.20
2018-06-05T23:25:25.021Z,18.10
2018-06-05T23:27:53.254Z,18.10
2018-06-05T23:30:21.528Z,18.10
2018-06-05T23:32:49.771Z,18.00
2018-06-05T23:35:18.088Z,18.00
2018-06-05T23:37:46.305Z,17.90
2018-06-05T23:40:14.439Z,17.90
2018-06-05T23:42:42.570Z,17.80
2018-06-05T23:45:10.760Z,17.80
2018-06-05T23:47:39.052Z,17.70
2018-06-05T23:50:07.305Z,17.70
2018-06-05T23:52:35.490Z,17.70
2018-06-05T23:55:03.739Z,17.70
2018-06-05T23:57:31.947Z,17.70
